sensor_id;sensor_type;location;lat;lon;timestamp;pressure;altitude;pressure_sealevel;temperature;humidity
52855;BME280;38719;51.418;7.286;2022-07-23T00:00:30;100062.25;;;19.53;69.24
52855;BME280;38719;51.418;7.286;2022-07-23T00:03:04;100056.94;;;19.40;70.34
52855;BME280;38719;51.418;7.286;2022-07-23T00:05:31;100062.00;;;19.45;70.37
52855;BME280;38719;51.418;7.286;2022-07-23T00:08:01;100068.25;;;19.34;70.88
52855;BME280;38719;51.418;7.286;2022-07-23T00:10:28;100072.06;;;19.31;71.32
52855;BME280;38719;51.418;7.286;2022-07-23T00:12:56;100070.22;;;19.32;71.88
52855;BME280;38719;51.418;7.286;2022-07-23T00:15:25;100064.94;;;19.19;72.13
52855;BME280;38719;51.418;7.286;2022-07-23T00:17:53;100051.81;;;19.26;71.95
52855;BME280;38719;51.418;7.286;2022-07-23T00:20:20;100046.28;;;19.27;71.80
52855;BME280;38719;51.418;7.286;2022-07-23T00:22:48;100046.53;;;19.24;72.07
52855;BME280;38719;51.418;7.286;2022-07-23T00:25:18;100042.38;;;19.09;71.95
52855;BME280;38719;51.418;7.286;2022-07-23T00:27:56;100046.41;;;19.03;72.22
52855;BME280;38719;51.418;7.286;2022-07-23T00:30:25;100050.19;;;19.00;72.33
52855;BME280;38719;51.418;7.286;2022-07-23T00:32:54;100035.59;;;18.92;73.07
52855;BME280;38719;51.418;7.286;2022-07-23T00:35:24;100039.69;;;18.73;73.91
52855;BME280;38719;51.418;7.286;2022-07-23T00:37:53;100044.56;;;18.92;73.67
52855;BME280;38719;51.418;7.286;2022-07-23T00:40:21;100041.88;;;19.15;72.52
52855;BME280;38719;51.418;7.286;2022-07-23T00:42:48;100046.53;;;19.24;71.92
52855;BME280;38719;51.418;7.286;2022-07-23T00:45:16;100042.84;;;19.25;72.22
52855;BME280;38719;51.418;7.286;2022-07-23T00:47:46;100041.88;;;19.15;71.84
52855;BME280;38719;51.418;7.286;2022-07-23T00:50:14;100032.06;;;19.14;72.21
52855;BME280;38719;51.418;7.286;2022-07-23T00:52:41;100034.00;;;19.12;72.38
52855;BME280;38719;51.418;7.286;2022-07-23T00:55:10;100035.84;;;19.11;72.42
52855;BME280;38719;51.418;7.286;2022-07-23T00:57:39;100031.56;;;19.09;72.69
52855;BME280;38719;51.418;7.286;2022-07-23T01:00:09;100024.72;;;19.05;72.73
52855;BME280;38719;51.418;7.286;2022-07-23T01:02:38;100021.63;;;19.09;72.86
52855;BME280;38719;51.418;7.286;2022-07-23T01:05:08;100019.94;;;19.08;72.91
52855;BME280;38719;51.418;7.286;2022-07-23T01:07:36;100023.97;;;19.03;73.29
52855;BME280;38719;51.418;7.286;2022-07-23T01:10:05;100023.19;;;18.89;73.14
52855;BME280;38719;51.418;7.286;2022-07-23T01:12:53;100018.56;;;18.91;73.51
52855;BME280;38719;51.418;7.286;2022-07-23T01:15:21;100032.06;;;18.91;73.46
52855;BME280;38719;51.418;7.286;2022-07-23T01:17:49;100028.06;;;18.84;73.82
52855;BME280;38719;51.418;7.286;2022-07-23T01:20:18;100023.44;;;18.86;73.83
52855;BME280;38719;51.418;7.286;2022-07-23T01:22:47;100029.34;;;18.91;73.67
52855;BME280;38719;51.418;7.286;2022-07-23T01:25:15;100026.53;;;18.93;73.94
52855;BME280;38719;51.418;7.286;2022-07-23T01:27:42;100019.41;;;18.92;73.82
52855;BME280;38719;51.418;7.286;2022-07-23T01:30:11;100014.00;;;18.92;73.91
52855;BME280;38719;51.418;7.286;2022-07-23T01:32:39;100024.63;;;18.82;73.97
52855;BME280;38719;51.418;7.286;2022-07-23T01:35:07;100021.13;;;18.93;73.58
52855;BME280;38719;51.418;7.286;2022-07-23T01:37:35;100024.31;;;18.98;73.92
52855;BME280;38719;51.418;7.286;2022-07-23T01:40:06;100039.66;;;18.97;73.66
52855;BME280;38719;51.418;7.286;2022-07-23T01:42:34;100040.75;;;18.95;73.83
52855;BME280;38719;51.418;7.286;2022-07-23T01:45:03;100023.22;;;19.00;74.07
52855;BME280;38719;51.418;7.286;2022-07-23T01:47:31;100013.66;;;18.96;73.55
52855;BME280;38719;51.418;7.286;2022-07-23T01:49:59;100018.06;;;18.97;73.81
52855;BME280;38719;51.418;7.286;2022-07-23T01:52:27;100018.31;;;18.94;73.57
52855;BME280;38719;51.418;7.286;2022-07-23T01:54:54;100007.50;;;18.94;73.76
52855;BME280;38719;51.418;7.286;2022-07-23T01:57:23;100013.16;;;18.91;73.68
52855;BME280;38719;51.418;7.286;2022-07-23T01:59:51;100003.31;;;18.90;74.19
52855;BME280;38719;51.418;7.286;2022-07-23T02:02:18;100005.16;;;18.90;74.06
52855;BME280;38719;51.418;7.286;2022-07-23T02:04:46;100000.66;;;19.01;74.08
52855;BME280;38719;51.418;7.286;2022-07-23T02:07:13;100006.31;;;18.98;73.94
52855;BME280;38719;51.418;7.286;2022-07-23T02:09:41;100008.25;;;18.96;73.67
52855;BME280;38719;51.418;7.286;2022-07-23T02:12:08;100001.13;;;18.95;73.93
52855;BME280;38719;51.418;7.286;2022-07-23T02:14:38;99999.78;;;18.90;74.18
52855;BME280;38719;51.418;7.286;2022-07-23T02:17:05;99996.97;;;18.91;73.97
52855;BME280;38719;51.418;7.286;2022-07-23T02:19:33;100004.66;;;18.84;74.16
52855;BME280;38719;51.418;7.286;2022-07-23T02:22:00;100008.72;;;18.79;73.91
52855;BME280;38719;51.418;7.286;2022-07-23T02:24:28;100010.78;;;18.75;73.83
52855;BME280;38719;51.418;7.286;2022-07-23T02:26:55;100006.63;;;18.71;73.67
52855;BME280;38719;51.418;7.286;2022-07-23T02:29:23;100007.69;;;18.68;73.94
52855;BME280;38719;51.418;7.286;2022-07-23T02:31:52;100009.91;;;18.63;73.72
52855;BME280;38719;51.418;7.286;2022-07-23T02:34:19;100013.31;;;18.54;73.96
52855;BME280;38719;51.418;7.286;2022-07-23T02:36:47;100010.84;;;18.51;74.31
52855;BME280;38719;51.418;7.286;2022-07-23T02:39:14;100010.69;;;18.41;74.53
52855;BME280;38719;51.418;7.286;2022-07-23T02:41:42;100008.25;;;18.38;74.30
52855;BME280;38719;51.418;7.286;2022-07-23T02:44:10;100000.00;;;18.28;74.50
52855;BME280;38719;51.418;7.286;2022-07-23T02:46:37;100003.69;;;18.27;74.59
52855;BME280;38719;51.418;7.286;2022-07-23T02:49:06;100004.53;;;18.28;75.07
52855;BME280;38719;51.418;7.286;2022-07-23T02:51:34;99994.69;;;18.15;74.64
52855;BME280;38719;51.418;7.286;2022-07-23T02:54:01;100001.41;;;18.10;75.00
52855;BME280;38719;51.418;7.286;2022-07-23T02:56:29;100006.06;;;18.08;75.28
52855;BME280;38719;51.418;7.286;2022-07-23T02:58:56;100007.03;;;18.07;74.73
52855;BME280;38719;51.418;7.286;2022-07-23T03:01:25;100021.25;;;18.09;74.53
52855;BME280;38719;51.418;7.286;2022-07-23T03:03:52;100018.25;;;18.00;74.46
52855;BME280;38719;51.418;7.286;2022-07-23T03:06:22;100014.22;;;17.95;74.57
52855;BME280;38719;51.418;7.286;2022-07-23T03:08:49;100020.03;;;17.88;74.32
52855;BME280;38719;51.418;7.286;2022-07-23T03:11:17;100021.56;;;17.80;74.53
52855;BME280;38719;51.418;7.286;2022-07-23T03:13:45;100018.13;;;17.78;75.01
52855;BME280;38719;51.418;7.286;2022-07-23T03:16:13;100018.41;;;17.86;76.00
52855;BME280;38719;51.418;7.286;2022-07-23T03:18:41;100002.66;;;17.93;76.64
52855;BME280;38719;51.418;7.286;2022-07-23T03:21:08;99997.59;;;18.01;76.92
52855;BME280;38719;51.418;7.286;2022-07-23T03:23:37;100005.31;;;18.06;76.45
52855;BME280;38719;51.418;7.286;2022-07-23T03:26:05;100007.66;;;18.10;76.28
52855;BME280;38719;51.418;7.286;2022-07-23T03:28:32;100003.69;;;18.03;75.90
52855;BME280;38719;51.418;7.286;2022-07-23T03:31:00;100000.66;;;18.08;75.34
52855;BME280;38719;51.418;7.286;2022-07-23T03:33:27;99995.75;;;18.01;75.41
52855;BME280;38719;51.418;7.286;2022-07-23T03:35:55;99997.16;;;17.94;75.28
52855;BME280;38719;51.418;7.286;2022-07-23T03:38:23;99993.22;;;17.87;75.35
52855;BME280;38719;51.418;7.286;2022-07-23T03:40:51;99996.97;;;17.84;75.62
52855;BME280;38719;51.418;7.286;2022-07-23T03:43:19;100001.50;;;17.84;75.72
52855;BME280;38719;51.418;7.286;2022-07-23T03:45:46;99998.31;;;17.79;74.91
52855;BME280;38719;51.418;7.286;2022-07-23T03:48:14;100003.25;;;17.72;75.23
52855;BME280;38719;51.418;7.286;2022-07-23T03:50:42;99999.97;;;17.68;74.96
52855;BME280;38719;51.418;7.286;2022-07-23T03:53:09;100006.31;;;17.67;75.45
52855;BME280;38719;51.418;7.286;2022-07-23T03:55:37;100009.53;;;17.72;75.92
52855;BME280;38719;51.418;7.286;2022-07-23T03:58:05;100005.41;;;17.80;75.79
52855;BME280;38719;51.418;7.286;2022-07-23T04:00:33;100006.50;;;17.77;75.53
52855;BME280;38719;51.418;7.286;2022-07-23T04:03:01;100006.13;;;17.82;76.07
52855;BME280;38719;51.418;7.286;2022-07-23T04:05:28;100008.84;;;17.82;76.46
52855;BME280;38719;51.418;7.286;2022-07-23T04:07:56;100007.28;;;17.91;77.14
52855;BME280;38719;51.418;7.286;2022-07-23T04:10:24;100013.75;;;18.01;76.94
52855;BME280;38719;51.418;7.286;2022-07-23T04:12:52;100015.56;;;18.00;76.78
52855;BME280;38719;51.418;7.286;2022-07-23T04:15:21;100016.69;;;18.09;77.12
52855;BME280;38719;51.418;7.286;2022-07-23T04:17:48;100017.13;;;18.16;77.26
52855;BME280;38719;51.418;7.286;2022-07-23T04:20:16;100017.34;;;18.13;76.86
52855;BME280;38719;51.418;7.286;2022-07-23T04:22:43;100027.94;;;18.27;76.86
52855;BME280;38719;51.418;7.286;2022-07-23T04:25:11;100019.50;;;18.32;76.31
52855;BME280;38719;51.418;7.286;2022-07-23T04:27:39;100016.00;;;18.43;76.03
52855;BME280;38719;51.418;7.286;2022-07-23T04:30:08;100015.38;;;18.50;75.72
52855;BME280;38719;51.418;7.286;2022-07-23T04:32:37;100016.00;;;18.54;76.05
52855;BME280;38719;51.418;7.286;2022-07-23T04:35:05;100016.63;;;18.58;75.71
52855;BME280;38719;51.418;7.286;2022-07-23T04:37:33;100025.09;;;18.64;75.64
52855;BME280;38719;51.418;7.286;2022-07-23T04:40:00;100025.44;;;18.48;75.54
52855;BME280;38719;51.418;7.286;2022-07-23T04:42:28;100030.47;;;18.53;75.91
52855;BME280;38719;51.418;7.286;2022-07-23T04:44:56;100034.09;;;18.05;76.94
52855;BME280;38719;51.418;7.286;2022-07-23T04:47:24;100042.72;;;18.21;76.21
52855;BME280;38719;51.418;7.286;2022-07-23T04:49:55;100042.84;;;18.20;76.23
52855;BME280;38719;51.418;7.286;2022-07-23T04:52:22;100046.94;;;18.26;76.78
52855;BME280;38719;51.418;7.286;2022-07-23T04:54:50;100044.41;;;18.35;76.25
52855;BME280;38719;51.418;7.286;2022-07-23T04:57:18;100058.22;;;18.31;76.08
52855;BME280;38719;51.418;7.286;2022-07-23T04:59:45;100055.84;;;18.26;76.14
52855;BME280;38719;51.418;7.286;2022-07-23T05:02:13;100060.06;;;18.30;76.44
52855;BME280;38719;51.418;7.286;2022-07-23T05:04:40;100055.81;;;18.39;76.38
52855;BME280;38719;51.418;7.286;2022-07-23T05:07:09;100063.88;;;18.39;76.17
52855;BME280;38719;51.418;7.286;2022-07-23T05:09:37;100058.84;;;18.34;75.60
52855;BME280;38719;51.418;7.286;2022-07-23T05:12:05;100063.75;;;18.41;75.27
52855;BME280;38719;51.418;7.286;2022-07-23T05:14:32;100071.97;;;18.39;75.75
52855;BME280;38719;51.418;7.286;2022-07-23T05:17:00;100072.34;;;18.46;76.45
52855;BME280;38719;51.418;7.286;2022-07-23T05:19:27;100067.47;;;18.51;75.83
52855;BME280;38719;51.418;7.286;2022-07-23T05:21:55;100063.47;;;18.57;75.32
52855;BME280;38719;51.418;7.286;2022-07-23T05:24:24;100063.59;;;18.66;75.07
52855;BME280;38719;51.418;7.286;2022-07-23T05:26:51;100067.66;;;18.72;74.47
52855;BME280;38719;51.418;7.286;2022-07-23T05:29:19;100062.66;;;18.79;74.60
52855;BME280;38719;51.418;7.286;2022-07-23T05:31:47;100070.88;;;18.77;73.35
52855;BME280;38719;51.418;7.286;2022-07-23T05:34:14;100078.44;;;18.72;73.58
52855;BME280;38719;51.418;7.286;2022-07-23T05:36:43;100084.22;;;18.79;73.97
52855;BME280;38719;51.418;7.286;2022-07-23T05:39:11;100085.34;;;18.76;73.51
52855;BME280;38719;51.418;7.286;2022-07-23T05:41:40;100086.94;;;18.79;72.57
52855;BME280;38719;51.418;7.286;2022-07-23T05:44:08;100090.53;;;18.91;72.94
52855;BME280;38719;51.418;7.286;2022-07-23T05:46:36;100088.91;;;18.88;73.06
52855;BME280;38719;51.418;7.286;2022-07-23T05:49:03;100096.44;;;18.96;72.95
52855;BME280;38719;51.418;7.286;2022-07-23T05:51:32;100099.38;;;18.93;72.61
52855;BME280;38719;51.418;7.286;2022-07-23T05:54:00;100098.28;;;18.95;73.06
52855;BME280;38719;51.418;7.286;2022-07-23T05:56:27;100099.53;;;19.03;73.25
52855;BME280;38719;51.418;7.286;2022-07-23T05:58:56;100100.50;;;19.01;72.88
52855;BME280;38719;51.418;7.286;2022-07-23T06:01:24;100104.63;;;18.94;72.93
52855;BME280;38719;51.418;7.286;2022-07-23T06:03:52;100093.31;;;18.89;73.23
52855;BME280;38719;51.418;7.286;2022-07-23T06:06:20;100089.44;;;18.93;73.35
52855;BME280;38719;51.418;7.286;2022-07-23T06:08:47;100097.91;;;19.00;73.87
52855;BME280;38719;51.418;7.286;2022-07-23T06:11:15;100091.78;;;18.98;73.25
52855;BME280;38719;51.418;7.286;2022-07-23T06:13:42;100097.09;;;19.11;72.84
52855;BME280;38719;51.418;7.286;2022-07-23T06:16:11;100092.41;;;19.24;72.82
52855;BME280;38719;51.418;7.286;2022-07-23T06:18:39;100095.72;;;19.28;72.69
52855;BME280;38719;51.418;7.286;2022-07-23T06:21:06;100108.50;;;19.26;72.15
52855;BME280;38719;51.418;7.286;2022-07-23T06:23:54;100113.28;;;19.22;72.51
52855;BME280;38719;51.418;7.286;2022-07-23T06:26:21;100112.06;;;19.38;71.95
52855;BME280;38719;51.418;7.286;2022-07-23T06:28:49;100109.75;;;19.56;71.08
52855;BME280;38719;51.418;7.286;2022-07-23T06:31:18;100107.88;;;19.68;69.94
52855;BME280;38719;51.418;7.286;2022-07-23T06:33:45;100117.69;;;19.69;69.65
52855;BME280;38719;51.418;7.286;2022-07-23T06:36:13;100119.66;;;19.78;70.17
52855;BME280;38719;51.418;7.286;2022-07-23T06:38:41;100117.94;;;19.43;70.54
52855;BME280;38719;51.418;7.286;2022-07-23T06:41:10;100113.00;;;19.03;72.63
52855;BME280;38719;51.418;7.286;2022-07-23T06:43:38;100115.25;;;19.43;72.62
52855;BME280;38719;51.418;7.286;2022-07-23T06:46:05;100114.50;;;19.63;70.53
52855;BME280;38719;51.418;7.286;2022-07-23T06:48:34;100115.88;;;19.69;70.93
52855;BME280;38719;51.418;7.286;2022-07-23T06:51:02;100123.59;;;19.62;70.47
52855;BME280;38719;51.418;7.286;2022-07-23T06:53:31;100124.59;;;19.73;71.00
52855;BME280;38719;51.418;7.286;2022-07-23T06:55:58;100123.22;;;19.78;70.86
52855;BME280;38719;51.418;7.286;2022-07-23T06:58:26;100126.53;;;19.82;70.92
52855;BME280;38719;51.418;7.286;2022-07-23T07:00:53;100128.28;;;19.94;70.91
52855;BME280;38719;51.418;7.286;2022-07-23T07:03:23;100132.81;;;20.05;69.24
52855;BME280;38719;51.418;7.286;2022-07-23T07:05:52;100144.47;;;20.06;69.35
52855;BME280;38719;51.418;7.286;2022-07-23T07:08:19;100135.41;;;19.84;70.35
52855;BME280;38719;51.418;7.286;2022-07-23T07:10:47;100135.75;;;20.02;70.18
52855;BME280;38719;51.418;7.286;2022-07-23T07:13:14;100138.91;;;20.19;69.82
52855;BME280;38719;51.418;7.286;2022-07-23T07:15:42;100136.59;;;20.14;70.10
52855;BME280;38719;51.418;7.286;2022-07-23T07:18:09;100138.09;;;19.50;70.57
52855;BME280;38719;51.418;7.286;2022-07-23T07:20:37;100141.28;;;19.78;69.88
52855;BME280;38719;51.418;7.286;2022-07-23T07:23:06;100132.88;;;20.26;69.30
52855;BME280;38719;51.418;7.286;2022-07-23T07:25:34;100135.84;;;20.23;68.63
52855;BME280;38719;51.418;7.286;2022-07-23T07:28:01;100142.94;;;20.36;68.52
52855;BME280;38719;51.418;7.286;2022-07-23T07:30:29;100138.31;;;19.81;69.40
52855;BME280;38719;51.418;7.286;2022-07-23T07:33:00;100146.56;;;20.13;68.81
52855;BME280;38719;51.418;7.286;2022-07-23T07:35:28;100133.78;;;20.48;67.39
52855;BME280;38719;51.418;7.286;2022-07-23T07:37:55;100148.84;;;20.73;67.25
52855;BME280;38719;51.418;7.286;2022-07-23T07:40:24;100154.19;;;20.52;66.87
52855;BME280;38719;51.418;7.286;2022-07-23T07:42:59;100144.75;;;20.79;66.69
52855;BME280;38719;51.418;7.286;2022-07-23T07:45:27;100151.56;;;20.94;66.94
52855;BME280;38719;51.418;7.286;2022-07-23T07:47:55;100156.31;;;21.02;65.74
52855;BME280;38719;51.418;7.286;2022-07-23T07:50:24;100158.84;;;21.15;65.63
52855;BME280;38719;51.418;7.286;2022-07-23T07:52:51;100164.09;;;21.38;64.88
52855;BME280;38719;51.418;7.286;2022-07-23T07:55:19;100163.09;;;21.60;65.12
52855;BME280;38719;51.418;7.286;2022-07-23T07:57:48;100166.09;;;21.57;62.67
52855;BME280;38719;51.418;7.286;2022-07-23T08:00:16;100157.56;;;21.71;63.01
52855;BME280;38719;51.418;7.286;2022-07-23T08:02:46;100159.94;;;21.86;62.35
52855;BME280;38719;51.418;7.286;2022-07-23T08:05:19;100163.91;;;21.92;61.55
52855;BME280;38719;51.418;7.286;2022-07-23T08:07:53;100167.81;;;21.99;62.14
52855;BME280;38719;51.418;7.286;2022-07-23T08:10:21;100167.22;;;21.95;63.46
52855;BME280;38719;51.418;7.286;2022-07-23T08:12:52;100173.28;;;21.78;63.40
52855;BME280;38719;51.418;7.286;2022-07-23T08:15:21;100170.41;;;21.48;64.78
52855;BME280;38719;51.418;7.286;2022-07-23T08:17:50;100173.84;;;21.50;63.72
52855;BME280;38719;51.418;7.286;2022-07-23T08:20:19;100174.00;;;21.28;63.86
52855;BME280;38719;51.418;7.286;2022-07-23T08:22:49;100190.69;;;21.54;64.13
52855;BME280;38719;51.418;7.286;2022-07-23T08:25:21;100184.63;;;21.93;64.09
52855;BME280;38719;51.418;7.286;2022-07-23T08:27:50;100186.34;;;21.94;62.39
52855;BME280;38719;51.418;7.286;2022-07-23T08:30:18;100187.50;;;22.01;63.58
52855;BME280;38719;51.418;7.286;2022-07-23T08:32:51;100183.25;;;22.08;61.96
52855;BME280;38719;51.418;7.286;2022-07-23T08:35:22;100183.50;;;22.05;62.52
52855;BME280;38719;51.418;7.286;2022-07-23T08:37:50;100186.97;;;22.07;61.51
52855;BME280;38719;51.418;7.286;2022-07-23T08:40:18;100184.69;;;22.12;60.82
52855;BME280;38719;51.418;7.286;2022-07-23T08:42:47;100196.63;;;22.00;60.26
52855;BME280;38719;51.418;7.286;2022-07-23T08:45:19;100201.22;;;21.99;60.39
52855;BME280;38719;51.418;7.286;2022-07-23T08:47:49;100192.09;;;22.10;59.90
52855;BME280;38719;51.418;7.286;2022-07-23T08:50:19;100189.53;;;22.09;60.60
52855;BME280;38719;51.418;7.286;2022-07-23T08:52:48;100191.53;;;22.16;59.45
52855;BME280;38719;51.418;7.286;2022-07-23T08:55:16;100197.13;;;22.25;58.19
52855;BME280;38719;51.418;7.286;2022-07-23T08:57:44;100197.38;;;22.52;57.77
52855;BME280;38719;51.418;7.286;2022-07-23T09:00:14;100195.19;;;22.36;55.56
52855;BME280;38719;51.418;7.286;2022-07-23T09:02:44;100186.81;;;22.69;56.64
52855;BME280;38719;51.418;7.286;2022-07-23T09:05:13;100195.09;;;22.67;55.86
52855;BME280;38719;51.418;7.286;2022-07-23T09:08:09;100200.84;;;22.23;56.29
52855;BME280;38719;51.418;7.286;2022-07-23T09:10:45;100208.22;;;22.02;57.52
52855;BME280;38719;51.418;7.286;2022-07-23T09:13:31;100198.22;;;22.53;56.63
52855;BME280;38719;51.418;7.286;2022-07-23T09:16:03;100206.22;;;22.54;55.19
52855;BME280;38719;51.418;7.286;2022-07-23T09:18:35;100197.38;;;22.82;53.40
52855;BME280;38719;51.418;7.286;2022-07-23T09:21:08;100194.25;;;22.86;54.15
52855;BME280;38719;51.418;7.286;2022-07-23T09:23:38;100196.81;;;22.98;53.56
52855;BME280;38719;51.418;7.286;2022-07-23T09:26:21;100204.53;;;23.22;54.16
52855;BME280;38719;51.418;7.286;2022-07-23T09:28:52;100203.22;;;23.36;52.14
52855;BME280;38719;51.418;7.286;2022-07-23T09:31:20;100203.63;;;23.41;53.48
52855;BME280;38719;51.418;7.286;2022-07-23T09:33:50;100205.25;;;23.05;52.82
52855;BME280;38719;51.418;7.286;2022-07-23T09:36:27;100208.22;;;22.52;54.55
52855;BME280;38719;51.418;7.286;2022-07-23T09:38:55;100202.81;;;23.21;53.32
52855;BME280;38719;51.418;7.286;2022-07-23T09:41:22;100206.22;;;23.53;51.97
52855;BME280;38719;51.418;7.286;2022-07-23T09:44:07;100203.50;;;23.90;50.48
52855;BME280;38719;51.418;7.286;2022-07-23T09:46:35;100198.41;;;24.15;50.91
52855;BME280;38719;51.418;7.286;2022-07-23T09:49:15;100202.09;;;23.96;49.10
52855;BME280;38719;51.418;7.286;2022-07-23T09:51:53;100205.13;;;24.21;50.82
52855;BME280;38719;51.418;7.286;2022-07-23T09:54:28;100201.44;;;24.12;50.55
52855;BME280;38719;51.418;7.286;2022-07-23T09:56:57;100203.41;;;23.72;50.72
52855;BME280;38719;51.418;7.286;2022-07-23T09:59:26;100196.97;;;23.73;51.52
52855;BME280;38719;51.418;7.286;2022-07-23T10:01:56;100195.84;;;23.66;51.38
52855;BME280;38719;51.418;7.286;2022-07-23T10:04:28;100193.13;;;23.66;52.22
52855;BME280;38719;51.418;7.286;2022-07-23T10:06:57;100184.78;;;23.30;51.64
52855;BME280;38719;51.418;7.286;2022-07-23T10:09:27;100194.81;;;23.29;51.92
52855;BME280;38719;51.418;7.286;2022-07-23T10:11:57;100194.31;;;24.01;50.86
52855;BME280;38719;51.418;7.286;2022-07-23T10:14:29;100189.34;;;24.42;51.23
52855;BME280;38719;51.418;7.286;2022-07-23T10:16:58;100192.91;;;23.97;49.89
52855;BME280;38719;51.418;7.286;2022-07-23T10:19:29;100196.91;;;23.55;51.95
52855;BME280;38719;51.418;7.286;2022-07-23T10:21:58;100197.84;;;23.74;50.70
52855;BME280;38719;51.418;7.286;2022-07-23T10:24:41;100194.72;;;24.06;49.49
52855;BME280;38719;51.418;7.286;2022-07-23T10:27:26;100187.69;;;24.77;49.41
52855;BME280;38719;51.418;7.286;2022-07-23T10:30:02;100192.16;;;24.51;49.87
52855;BME280;38719;51.418;7.286;2022-07-23T10:32:40;100202.69;;;25.18;47.90
52855;BME280;38719;51.418;7.286;2022-07-23T10:35:31;100196.94;;;25.21;46.90
52855;BME280;38719;51.418;7.286;2022-07-23T10:38:07;100204.53;;;25.62;47.55
52855;BME280;38719;51.418;7.286;2022-07-23T10:40:53;100198.97;;;25.71;47.12
52855;BME280;38719;51.418;7.286;2022-07-23T10:43:21;100196.75;;;25.22;46.43
52855;BME280;38719;51.418;7.286;2022-07-23T10:45:49;100197.13;;;25.46;46.34
52855;BME280;38719;51.418;7.286;2022-07-23T10:48:18;100191.84;;;25.70;44.51
52855;BME280;38719;51.418;7.286;2022-07-23T10:51:09;100196.84;;;25.13;43.96
52855;BME280;38719;51.418;7.286;2022-07-23T10:53:56;100197.31;;;25.26;45.39
52855;BME280;38719;51.418;7.286;2022-07-23T10:56:50;100192.19;;;25.75;45.22
52855;BME280;38719;51.418;7.286;2022-07-23T11:00:15;100187.16;;;25.89;44.87
52855;BME280;38719;51.418;7.286;2022-07-23T11:02:45;100181.94;;;25.69;43.77
52855;BME280;38719;51.418;7.286;2022-07-23T11:05:15;100190.41;;;25.58;43.36
52855;BME280;38719;51.418;7.286;2022-07-23T11:08:12;100188.41;;;25.68;45.64
52855;BME280;38719;51.418;7.286;2022-07-23T11:10:44;100188.63;;;26.10;45.27
52855;BME280;38719;51.418;7.286;2022-07-23T11:13:30;100186.16;;;26.33;42.58
52855;BME280;38719;51.418;7.286;2022-07-23T11:16:04;100186.69;;;26.45;42.04
52855;BME280;38719;51.418;7.286;2022-07-23T11:18:55;100187.41;;;26.63;42.68
52855;BME280;38719;51.418;7.286;2022-07-23T11:21:48;100184.50;;;26.05;42.17
52855;BME280;38719;51.418;7.286;2022-07-23T11:24:22;100185.59;;;26.21;43.26
52855;BME280;38719;51.418;7.286;2022-07-23T11:27:01;100177.19;;;26.74;40.55
52855;BME280;38719;51.418;7.286;2022-07-23T11:29:39;100180.28;;;26.87;39.99
52855;BME280;38719;51.418;7.286;2022-07-23T11:32:27;100178.06;;;26.99;41.04
52855;BME280;38719;51.418;7.286;2022-07-23T11:34:56;100173.78;;;27.21;40.72
52855;BME280;38719;51.418;7.286;2022-07-23T11:37:42;100168.19;;;26.98;40.07
52855;BME280;38719;51.418;7.286;2022-07-23T11:40:14;100170.69;;;26.66;41.17
52855;BME280;38719;51.418;7.286;2022-07-23T11:42:52;100176.13;;;26.66;42.28
52855;BME280;38719;51.418;7.286;2022-07-23T11:45:20;100175.84;;;27.02;40.50
52855;BME280;38719;51.418;7.286;2022-07-23T11:47:48;100181.81;;;27.06;39.75
52855;BME280;38719;51.418;7.286;2022-07-23T11:50:16;100178.91;;;27.24;38.71
52855;BME280;38719;51.418;7.286;2022-07-23T11:52:43;100166.59;;;27.20;39.07
52855;BME280;38719;51.418;7.286;2022-07-23T11:55:12;100170.53;;;27.26;39.11
52855;BME280;38719;51.418;7.286;2022-07-23T11:57:43;100173.25;;;27.50;38.98
52855;BME280;38719;51.418;7.286;2022-07-23T12:00:13;100171.06;;;27.29;40.28
52855;BME280;38719;51.418;7.286;2022-07-23T12:02:44;100172.41;;;27.50;39.78
52855;BME280;38719;51.418;7.286;2022-07-23T12:05:13;100175.66;;;27.54;40.24
52855;BME280;38719;51.418;7.286;2022-07-23T12:07:42;100170.84;;;27.64;39.01
52855;BME280;38719;51.418;7.286;2022-07-23T12:10:14;100172.22;;;28.08;37.37
52855;BME280;38719;51.418;7.286;2022-07-23T12:12:43;100178.56;;;28.00;38.30
52855;BME280;38719;51.418;7.286;2022-07-23T12:15:12;100174.00;;;28.32;37.83
52855;BME280;38719;51.418;7.286;2022-07-23T12:17:42;100172.50;;;28.21;38.54
52855;BME280;38719;51.418;7.286;2022-07-23T12:20:21;100171.13;;;28.25;37.45
52855;BME280;38719;51.418;7.286;2022-07-23T12:22:50;100171.25;;;27.92;37.80
52855;BME280;38719;51.418;7.286;2022-07-23T12:25:21;100162.66;;;28.67;36.57
52855;BME280;38719;51.418;7.286;2022-07-23T12:27:59;100156.63;;;28.17;36.86
52855;BME280;38719;51.418;7.286;2022-07-23T12:30:29;100162.03;;;28.56;37.22
52855;BME280;38719;51.418;7.286;2022-07-23T12:33:03;100165.38;;;28.75;35.85
52855;BME280;38719;51.418;7.286;2022-07-23T12:35:33;100160.34;;;29.02;36.11
52855;BME280;38719;51.418;7.286;2022-07-23T12:38:04;100160.63;;;28.60;35.95
52855;BME280;38719;51.418;7.286;2022-07-23T12:40:36;100159.09;;;28.35;35.50
52855;BME280;38719;51.418;7.286;2022-07-23T12:43:07;100158.00;;;28.75;36.08
52855;BME280;38719;51.418;7.286;2022-07-23T12:45:44;100165.59;;;29.26;34.10
52855;BME280;38719;51.418;7.286;2022-07-23T12:48:17;100170.00;;;29.13;35.01
52855;BME280;38719;51.418;7.286;2022-07-23T12:50:53;100162.03;;;29.03;34.41
52855;BME280;38719;51.418;7.286;2022-07-23T12:53:23;100164.81;;;29.18;34.93
52855;BME280;38719;51.418;7.286;2022-07-23T12:55:59;100169.47;;;29.17;34.47
52855;BME280;38719;51.418;7.286;2022-07-23T12:58:43;100165.47;;;29.73;33.92
52855;BME280;38719;51.418;7.286;2022-07-23T13:01:23;100164.81;;;29.71;33.40
52855;BME280;38719;51.418;7.286;2022-07-23T13:04:01;100180.72;;;29.75;32.78
52855;BME280;38719;51.418;7.286;2022-07-23T13:06:40;100170.09;;;29.87;32.36